createdAt,value
2022-12-23T00:15:31.681Z,87.84
2022-12-23T00:37:17.295Z,86.46
2022-12-23T00:59:03.291Z,87.36
2022-12-23T01:20:49.048Z,87.37
2022-12-23T01:42:47.418Z,85.83
2022-12-23T02:04:33.501Z,85.41
2022-12-23T02:26:53.649Z,85.67
2022-12-23T02:48:46.587Z,85.26
2022-12-23T03:10:44.825Z,85.49
2022-12-23T03:32:34.512Z,85.79
2022-12-23T03:54:24.908Z,85.40
2022-12-23T04:16:11.522Z,85.21
2022-12-23T04:37:57.502Z,84.74
2022-12-23T04:59:43.334Z,84.78
2022-12-23T05:21:29.360Z,84.67
2022-12-23T05:43:15.271Z,85.79
2022-12-23T06:05:01.001Z,86.55
2022-12-23T06:26:48.097Z,86.10
2022-12-23T06:52:42.607Z,86.29
2022-12-23T07:14:28.297Z,86.57
2022-12-23T07:43:50.193Z,87.43
2022-12-23T08:05:35.994Z,87.68
2022-12-23T08:27:21.943Z,86.89
2022-12-23T08:49:08.606Z,85.95
2022-12-23T09:19:16.680Z,85.76
2022-12-23T09:41:12.047Z,84.78
2022-12-23T10:03:09.988Z,84.66
2022-12-23T10:44:06.378Z,84.46
2022-12-23T11:05:54.864Z,83.13
2022-12-23T11:27:44.226Z,81.53
2022-12-23T11:49:32.449Z,80.83
2022-12-23T12:11:23.309Z,79.97
2022-12-23T12:33:17.137Z,80.60
2022-12-23T12:55:13.809Z,80.78
2022-12-23T13:17:07.672Z,80.09
2022-12-23T13:39:09.330Z,80.76
2022-12-23T14:01:21.026Z,81.20
2022-12-23T14:23:23.485Z,80.05
2022-12-23T14:45:42.569Z,81.13
2022-12-23T15:07:32.264Z,82.40
2022-12-23T15:29:18.890Z,82.79
2022-12-23T15:51:08.567Z,82.89
2022-12-23T16:12:54.675Z,83.05
2022-12-23T16:42:45.432Z,84.72
2022-12-23T17:04:31.280Z,84.85
2022-12-23T17:26:17.189Z,84.82
2022-12-23T17:48:03.065Z,84.43
2022-12-23T18:09:50.976Z,83.90
2022-12-23T18:31:42.755Z,83.31
2022-12-23T18:53:32.566Z,84.02
2022-12-23T19:15:19.291Z,84.05
2022-12-23T19:37:05.168Z,83.95
2022-12-23T19:58:51.510Z,84.13
2022-12-23T20:20:38.588Z,84.08
2022-12-23T20:42:26.707Z,83.81
2022-12-23T21:04:15.911Z,83.55
2022-12-23T21:26:14.724Z,83.28
2022-12-23T21:48:00.518Z,84.37
2022-12-23T22:09:46.212Z,85.56
2022-12-23T22:43:25.980Z,87.90
2022-12-23T23:05:13.283Z,88.44
2022-12-23T23:43:48.985Z,88.01
